TTW321 RCKH-VMMC
Flight info
| Callsign | TTW321 |
|---|---|
| Flight time | 1h 17m |
| Altitude | 32000 |
| Route | PARAS2A PARAS T7 WP521 G581 ELATO J101 SMT |
| Aircraft | A320/M-SDE3FGHIRWY/LB1 |
Departure
| Time | 2026-04-20 22:13 |
|---|---|
| Airport | Kaohsiung International Airport (RCKH) |
Arrival
| Time | 2026-04-20 23:31 |
|---|---|
| Airport | Macau International Airport (VMMC) |
| Time | Latitude | Longitude | Altitude | Speed | Heading |
|---|---|---|---|---|---|
| 2026-04-20 21:41 | 22.57271 | 120.33961 | 38 ft | 0 kts | 272° |
| 2026-04-20 22:00 | 22.57270 | 120.33979 | 38 ft | 4 kts | 274° |
| 2026-04-20 22:01 | 22.57267 | 120.34008 | 38 ft | 4 kts | 281° |
| 2026-04-20 22:01 | 22.57260 | 120.34035 | 36 ft | 4 kts | 303° |
| 2026-04-20 22:01 | 22.57245 | 120.34049 | 35 ft | 1 kts | 1° |
| 2026-04-20 22:07 | 22.57253 | 120.34049 | 34 ft | 3 kts | 2° |
| 2026-04-20 22:07 | 22.57281 | 120.34050 | 36 ft | 6 kts | 2° |
| 2026-04-20 22:07 | 22.57337 | 120.34052 | 38 ft | 9 kts | 2° |
| 2026-04-20 22:08 | 22.57352 | 120.34053 | 38 ft | 0 kts | 2° |
| 2026-04-20 22:08 | 22.57380 | 120.34053 | 38 ft | 7 kts | 0° |
| 2026-04-20 22:09 | 22.57411 | 120.34015 | 38 ft | 11 kts | 281° |
| 2026-04-20 22:09 | 22.57412 | 120.33949 | 38 ft | 14 kts | 270° |
| 2026-04-20 22:09 | 22.57414 | 120.33854 | 38 ft | 10 kts | 271° |
| 2026-04-20 22:09 | 22.57416 | 120.33799 | 38 ft | 12 kts | 272° |
| 2026-04-20 22:10 | 22.57433 | 120.33677 | 37 ft | 13 kts | 310° |
| 2026-04-20 22:10 | 22.57507 | 120.33607 | 38 ft | 15 kts | 320° |
| 2026-04-20 22:10 | 22.57587 | 120.33527 | 38 ft | 13 kts | 316° |
| 2026-04-20 22:10 | 22.57653 | 120.33502 | 38 ft | 0 kts | 0° |
| 2026-04-20 22:11 | 22.57668 | 120.33503 | 38 ft | 5 kts | 0° |
| 2026-04-20 22:12 | 22.57718 | 120.33505 | 38 ft | 10 kts | 8° |
| 2026-04-20 22:12 | 22.57751 | 120.33601 | 38 ft | 17 kts | 91° |
| 2026-04-20 22:12 | 22.57747 | 120.33750 | 39 ft | 32 kts | 93° |
| 2026-04-20 22:12 | 22.57732 | 120.34251 | 39 ft | 98 kts | 92° |
| 2026-04-20 22:13 | 22.57704 | 120.35172 | 38 ft | 145 kts | 91° |
| 2026-04-20 22:13 | 22.57672 | 120.36346 | 393 ft | 154 kts | 91° |
| 2026-04-20 22:13 | 22.57639 | 120.37505 | 948 ft | 155 kts | 91° |
| 2026-04-20 22:13 | 22.57285 | 120.38618 | 1294 ft | 170 kts | 135° |
| 2026-04-20 22:14 | 22.56168 | 120.39172 | 1570 ft | 189 kts | 174° |
| 2026-04-20 22:14 | 22.54853 | 120.38865 | 1885 ft | 204 kts | 213° |
| 2026-04-20 22:14 | 22.53761 | 120.37892 | 2516 ft | 202 kts | 220° |
| 2026-04-20 22:14 | 22.52712 | 120.36855 | 3068 ft | 207 kts | 221° |
| 2026-04-20 22:15 | 22.51640 | 120.35784 | 3238 ft | 209 kts | 221° |
| 2026-04-20 22:15 | 22.50571 | 120.34721 | 3372 ft | 210 kts | 220° |
| 2026-04-20 22:15 | 22.49488 | 120.33658 | 3499 ft | 210 kts | 220° |
| 2026-04-20 22:15 | 22.48402 | 120.32602 | 3657 ft | 210 kts | 220° |
| 2026-04-20 22:16 | 22.47312 | 120.31550 | 3803 ft | 210 kts | 220° |
| 2026-04-20 22:16 | 22.46179 | 120.30463 | 3959 ft | 226 kts | 219° |
| 2026-04-20 22:16 | 22.44991 | 120.29326 | 4107 ft | 230 kts | 219° |
| 2026-04-20 22:16 | 22.43790 | 120.28177 | 4250 ft | 231 kts | 219° |
| 2026-04-20 22:17 | 22.42586 | 120.27030 | 4400 ft | 231 kts | 219° |
| 2026-04-20 22:17 | 22.41377 | 120.25879 | 4550 ft | 231 kts | 219° |
| 2026-04-20 22:17 | 22.40176 | 120.24734 | 4692 ft | 232 kts | 219° |
| 2026-04-20 22:17 | 22.38993 | 120.23608 | 4836 ft | 232 kts | 219° |
| 2026-04-20 22:18 | 22.37780 | 120.22451 | 4981 ft | 232 kts | 219° |
| 2026-04-20 22:18 | 22.36566 | 120.21295 | 5124 ft | 233 kts | 219° |
| 2026-04-20 22:18 | 22.35353 | 120.20141 | 5265 ft | 232 kts | 219° |
| 2026-04-20 22:18 | 22.34142 | 120.18990 | 5414 ft | 233 kts | 219° |
| 2026-04-20 22:19 | 22.32926 | 120.17833 | 5558 ft | 233 kts | 219° |
| 2026-04-20 22:19 | 22.31706 | 120.16672 | 5706 ft | 233 kts | 219° |
| 2026-04-20 22:19 | 22.30495 | 120.15504 | 5850 ft | 234 kts | 224° |
| 2026-04-20 22:19 | 22.29541 | 120.14072 | 5998 ft | 240 kts | 243° |
| 2026-04-20 22:20 | 22.29018 | 120.12267 | 6110 ft | 273 kts | 256° |
| 2026-04-20 22:20 | 22.28586 | 120.10231 | 5996 ft | 280 kts | 256° |
| 2026-04-20 22:20 | 22.28157 | 120.08187 | 6010 ft | 282 kts | 256° |
| 2026-04-20 22:20 | 22.27721 | 120.06118 | 6011 ft | 282 kts | 255° |
| 2026-04-20 22:21 | 22.27280 | 120.04048 | 6014 ft | 282 kts | 255° |
| 2026-04-20 22:21 | 22.26837 | 120.01977 | 6183 ft | 287 kts | 255° |
| 2026-04-20 22:21 | 22.26388 | 119.99879 | 7021 ft | 287 kts | 255° |
| 2026-04-20 22:21 | 22.25940 | 119.97787 | 7903 ft | 287 kts | 256° |
| 2026-04-20 22:22 | 22.25491 | 119.95691 | 8771 ft | 287 kts | 256° |
| 2026-04-20 22:22 | 22.25045 | 119.93589 | 9599 ft | 288 kts | 256° |
| 2026-04-20 22:22 | 22.24594 | 119.91464 | 10314 ft | 293 kts | 256° |
| 2026-04-20 22:22 | 22.24117 | 119.89233 | 10509 ft | 316 kts | 256° |
| 2026-04-20 22:23 | 22.23608 | 119.86867 | 10899 ft | 329 kts | 256° |
| 2026-04-20 22:23 | 22.23091 | 119.84447 | 11506 ft | 334 kts | 256° |
| 2026-04-20 22:23 | 22.22566 | 119.82002 | 12147 ft | 337 kts | 256° |
| 2026-04-20 22:23 | 22.22031 | 119.79519 | 12793 ft | 340 kts | 256° |
| 2026-04-20 22:24 | 22.21495 | 119.77020 | 13421 ft | 343 kts | 256° |
| 2026-04-20 22:24 | 22.20953 | 119.74501 | 14009 ft | 347 kts | 256° |
| 2026-04-20 22:24 | 22.20404 | 119.71952 | 14540 ft | 350 kts | 256° |
| 2026-04-20 22:24 | 22.19852 | 119.69393 | 15065 ft | 352 kts | 256° |
| 2026-04-20 22:25 | 22.19293 | 119.66806 | 15600 ft | 355 kts | 256° |
| 2026-04-20 22:25 | 22.18732 | 119.64213 | 16115 ft | 358 kts | 257° |
| 2026-04-20 22:25 | 22.18166 | 119.61587 | 16638 ft | 361 kts | 257° |
| 2026-04-20 22:25 | 22.17593 | 119.58927 | 17160 ft | 364 kts | 257° |
| 2026-04-20 22:26 | 22.17018 | 119.56272 | 17672 ft | 367 kts | 257° |
| 2026-04-20 22:26 | 22.16433 | 119.53573 | 18173 ft | 370 kts | 257° |
| 2026-04-20 22:26 | 22.16102 | 119.50812 | 18610 ft | 373 kts | 268° |
| 2026-04-20 22:27 | 22.15967 | 119.45232 | 19511 ft | 376 kts | 268° |
| 2026-04-20 22:27 | 22.15891 | 119.42408 | 19985 ft | 378 kts | 268° |
| 2026-04-20 22:27 | 22.15811 | 119.39571 | 20463 ft | 379 kts | 268° |
| 2026-04-20 22:27 | 22.15731 | 119.36723 | 20946 ft | 380 kts | 268° |
| 2026-04-20 22:28 | 22.15653 | 119.33873 | 21410 ft | 381 kts | 268° |
| 2026-04-20 22:28 | 22.15575 | 119.30999 | 21880 ft | 383 kts | 268° |
| 2026-04-20 22:28 | 22.15497 | 119.28135 | 22339 ft | 384 kts | 268° |
| 2026-04-20 22:28 | 22.15416 | 119.25248 | 22803 ft | 385 kts | 267° |
| 2026-04-20 22:29 | 22.15335 | 119.22357 | 23268 ft | 386 kts | 267° |
| 2026-04-20 22:29 | 22.15251 | 119.19455 | 23680 ft | 388 kts | 267° |
| 2026-04-20 22:29 | 22.15166 | 119.16544 | 24041 ft | 389 kts | 267° |
| 2026-04-20 22:29 | 22.15078 | 119.13624 | 24401 ft | 391 kts | 267° |
| 2026-04-20 22:30 | 22.14994 | 119.10692 | 24754 ft | 392 kts | 267° |
| 2026-04-20 22:30 | 22.15084 | 119.07745 | 25101 ft | 395 kts | 276° |
| 2026-04-20 22:30 | 22.15444 | 119.04815 | 25448 ft | 397 kts | 276° |
| 2026-04-20 22:30 | 22.15808 | 119.01852 | 25800 ft | 398 kts | 276° |
| 2026-04-20 22:31 | 22.16170 | 118.98881 | 26154 ft | 400 kts | 276° |
| 2026-04-20 22:31 | 22.16529 | 118.95894 | 26504 ft | 402 kts | 276° |
| 2026-04-20 22:31 | 22.16886 | 118.92905 | 26845 ft | 403 kts | 276° |
| 2026-04-20 22:31 | 22.17246 | 118.89892 | 27178 ft | 405 kts | 276° |
| 2026-04-20 22:32 | 22.17603 | 118.86869 | 27512 ft | 407 kts | 276° |
| 2026-04-20 22:32 | 22.17962 | 118.83839 | 27843 ft | 408 kts | 276° |
| 2026-04-20 22:32 | 22.18327 | 118.80795 | 28177 ft | 410 kts | 276° |
| 2026-04-20 22:32 | 22.18693 | 118.77743 | 28520 ft | 412 kts | 276° |
| 2026-04-20 22:33 | 22.19059 | 118.74687 | 28865 ft | 414 kts | 276° |
| 2026-04-20 22:33 | 22.19426 | 118.71596 | 29220 ft | 415 kts | 276° |
| 2026-04-20 22:33 | 22.19793 | 118.68487 | 29572 ft | 417 kts | 276° |
| 2026-04-20 22:33 | 22.20157 | 118.65381 | 29918 ft | 419 kts | 276° |
| 2026-04-20 22:34 | 22.20524 | 118.62244 | 30229 ft | 421 kts | 276° |
| 2026-04-20 22:34 | 22.20892 | 118.59093 | 30518 ft | 422 kts | 276° |
| 2026-04-20 22:34 | 22.21258 | 118.55946 | 30822 ft | 424 kts | 276° |
| 2026-04-20 22:34 | 22.21625 | 118.52790 | 31205 ft | 423 kts | 276° |
| 2026-04-20 22:35 | 22.21991 | 118.49657 | 31657 ft | 420 kts | 276° |
| 2026-04-20 22:35 | 22.22358 | 118.46528 | 31910 ft | 419 kts | 276° |
| 2026-04-20 22:35 | 22.23075 | 118.40416 | 31974 ft | 403 kts | 276° |
| 2026-04-20 22:36 | 22.23782 | 118.34444 | 31975 ft | 400 kts | 276° |
| 2026-04-20 22:36 | 22.24463 | 118.28494 | 31982 ft | 399 kts | 276° |
| 2026-04-20 22:37 | 22.25145 | 118.22546 | 31972 ft | 399 kts | 276° |
| 2026-04-20 22:37 | 22.25828 | 118.16594 | 31972 ft | 399 kts | 276° |
| 2026-04-20 22:38 | 22.26505 | 118.10680 | 31978 ft | 400 kts | 276° |
| 2026-04-20 22:38 | 22.27163 | 118.04719 | 31984 ft | 400 kts | 275° |
| 2026-04-20 22:39 | 22.27806 | 117.98744 | 31984 ft | 400 kts | 276° |
| 2026-04-20 22:39 | 22.28482 | 117.92776 | 31983 ft | 401 kts | 276° |
| 2026-04-20 22:40 | 22.29177 | 117.86812 | 31988 ft | 401 kts | 276° |
| 2026-04-20 22:40 | 22.29864 | 117.80836 | 31985 ft | 401 kts | 276° |
| 2026-04-20 22:41 | 22.30536 | 117.74871 | 31982 ft | 401 kts | 276° |
| 2026-04-20 22:41 | 22.31213 | 117.68881 | 31985 ft | 401 kts | 276° |
| 2026-04-20 22:42 | 22.31883 | 117.62908 | 31986 ft | 401 kts | 276° |
| 2026-04-20 22:42 | 22.32554 | 117.56931 | 31985 ft | 401 kts | 276° |
| 2026-04-20 22:43 | 22.33225 | 117.50959 | 31988 ft | 401 kts | 276° |
| 2026-04-20 22:43 | 22.34377 | 117.45062 | 31990 ft | 401 kts | 282° |
| 2026-04-20 22:44 | 22.35630 | 117.39190 | 31986 ft | 401 kts | 282° |
| 2026-04-20 22:44 | 22.36888 | 117.33313 | 31984 ft | 401 kts | 282° |
| 2026-04-20 22:45 | 22.38133 | 117.27428 | 31989 ft | 401 kts | 282° |
| 2026-04-20 22:45 | 22.39371 | 117.21549 | 31988 ft | 401 kts | 282° |
| 2026-04-20 22:46 | 22.40602 | 117.15704 | 31985 ft | 401 kts | 282° |
| 2026-04-20 22:46 | 22.41838 | 117.09835 | 31985 ft | 401 kts | 282° |
| 2026-04-20 22:47 | 22.43080 | 117.03954 | 31992 ft | 401 kts | 282° |
| 2026-04-20 22:47 | 22.44307 | 116.98078 | 31986 ft | 401 kts | 281° |
| 2026-04-20 22:48 | 22.45530 | 116.92195 | 31984 ft | 401 kts | 282° |
| 2026-04-20 22:48 | 22.46762 | 116.86313 | 31984 ft | 401 kts | 282° |
| 2026-04-20 22:49 | 22.47994 | 116.80439 | 31986 ft | 401 kts | 282° |
| 2026-04-20 22:49 | 22.49214 | 116.74557 | 31988 ft | 401 kts | 281° |
| 2026-04-20 22:50 | 22.50404 | 116.68669 | 31985 ft | 400 kts | 278° |
| 2026-04-20 22:50 | 22.50455 | 116.62670 | 31981 ft | 400 kts | 267° |
| 2026-04-20 22:51 | 22.50123 | 116.56664 | 31979 ft | 400 kts | 267° |
| 2026-04-20 22:51 | 22.49791 | 116.50657 | 31977 ft | 400 kts | 267° |
| 2026-04-20 22:52 | 22.49455 | 116.44648 | 31979 ft | 400 kts | 267° |
| 2026-04-20 22:52 | 22.49121 | 116.38639 | 31978 ft | 400 kts | 267° |
| 2026-04-20 22:53 | 22.48778 | 116.32665 | 31976 ft | 400 kts | 267° |
| 2026-04-20 22:53 | 22.48432 | 116.26613 | 31976 ft | 400 kts | 267° |
| 2026-04-20 22:54 | 22.48085 | 116.20646 | 31973 ft | 400 kts | 267° |
| 2026-04-20 22:54 | 22.47740 | 116.14638 | 31977 ft | 400 kts | 267° |
| 2026-04-20 22:55 | 22.47393 | 116.08634 | 31980 ft | 400 kts | 267° |
| 2026-04-20 22:55 | 22.47046 | 116.02641 | 31981 ft | 400 kts | 267° |
| 2026-04-20 22:56 | 22.46693 | 115.96633 | 31979 ft | 400 kts | 267° |
| 2026-04-20 22:56 | 22.46348 | 115.90633 | 31980 ft | 400 kts | 267° |
| 2026-04-20 22:57 | 22.45987 | 115.84643 | 31983 ft | 399 kts | 267° |
| 2026-04-20 22:57 | 22.45623 | 115.78657 | 31982 ft | 399 kts | 267° |
| 2026-04-20 22:58 | 22.45324 | 115.73691 | 31982 ft | 398 kts | 267° |
| 2026-04-20 22:58 | 22.44959 | 115.67717 | 31981 ft | 398 kts | 267° |
| 2026-04-20 22:59 | 22.44594 | 115.61747 | 31977 ft | 398 kts | 267° |
| 2026-04-20 22:59 | 22.44235 | 115.55785 | 31975 ft | 398 kts | 266° |
| 2026-04-20 23:00 | 22.43867 | 115.49817 | 31977 ft | 398 kts | 266° |
| 2026-04-20 23:00 | 22.43496 | 115.43864 | 31975 ft | 397 kts | 266° |
| 2026-04-20 23:01 | 22.43124 | 115.37900 | 31971 ft | 397 kts | 266° |
| 2026-04-20 23:01 | 22.42752 | 115.31943 | 31974 ft | 397 kts | 266° |
| 2026-04-20 23:02 | 22.42375 | 115.25995 | 31943 ft | 395 kts | 266° |
| 2026-04-20 23:02 | 22.42189 | 115.23067 | 31710 ft | 386 kts | 266° |
| 2026-04-20 23:02 | 22.42003 | 115.20201 | 31468 ft | 380 kts | 266° |
| 2026-04-20 23:03 | 22.41820 | 115.17361 | 31228 ft | 377 kts | 266° |
| 2026-04-20 23:03 | 22.41640 | 115.14537 | 30993 ft | 376 kts | 266° |
| 2026-04-20 23:03 | 22.41458 | 115.11717 | 30760 ft | 375 kts | 266° |
| 2026-04-20 23:03 | 22.41275 | 115.08909 | 30525 ft | 375 kts | 266° |
| 2026-04-20 23:04 | 22.41094 | 115.06105 | 30285 ft | 374 kts | 266° |
| 2026-04-20 23:04 | 22.40916 | 115.03312 | 30085 ft | 373 kts | 266° |
| 2026-04-20 23:04 | 22.40737 | 115.00514 | 29870 ft | 372 kts | 266° |
| 2026-04-20 23:04 | 22.40559 | 114.97730 | 29657 ft | 371 kts | 266° |
| 2026-04-20 23:05 | 22.40380 | 114.94944 | 29441 ft | 370 kts | 266° |
| 2026-04-20 23:05 | 22.40199 | 114.92174 | 29230 ft | 370 kts | 266° |
| 2026-04-20 23:05 | 22.40019 | 114.89441 | 29019 ft | 369 kts | 266° |
| 2026-04-20 23:05 | 22.39836 | 114.86689 | 28812 ft | 368 kts | 266° |
| 2026-04-20 23:06 | 22.39653 | 114.83937 | 28604 ft | 366 kts | 266° |
| 2026-04-20 23:06 | 22.39470 | 114.81194 | 28398 ft | 366 kts | 266° |
| 2026-04-20 23:06 | 22.39284 | 114.78453 | 28195 ft | 365 kts | 266° |
| 2026-04-20 23:06 | 22.39099 | 114.75724 | 28011 ft | 364 kts | 266° |
| 2026-04-20 23:07 | 22.38919 | 114.73002 | 27931 ft | 363 kts | 266° |
| 2026-04-20 23:07 | 22.38742 | 114.70284 | 27947 ft | 363 kts | 266° |
| 2026-04-20 23:07 | 22.38562 | 114.67558 | 27948 ft | 364 kts | 266° |
| 2026-04-20 23:07 | 22.38382 | 114.64832 | 27949 ft | 363 kts | 266° |
| 2026-04-20 23:08 | 22.38199 | 114.62110 | 27946 ft | 363 kts | 266° |
| 2026-04-20 23:08 | 22.38016 | 114.59385 | 27947 ft | 364 kts | 266° |
| 2026-04-20 23:08 | 22.37830 | 114.56657 | 27948 ft | 364 kts | 266° |
| 2026-04-20 23:08 | 22.37645 | 114.53933 | 27945 ft | 364 kts | 266° |
| 2026-04-20 23:09 | 22.37462 | 114.51212 | 27944 ft | 364 kts | 266° |
| 2026-04-20 23:09 | 22.37279 | 114.48489 | 27944 ft | 364 kts | 266° |
| 2026-04-20 23:09 | 22.37093 | 114.45762 | 27942 ft | 364 kts | 266° |
| 2026-04-20 23:09 | 22.36904 | 114.43040 | 27942 ft | 364 kts | 266° |
| 2026-04-20 23:10 | 22.36713 | 114.40327 | 27944 ft | 363 kts | 266° |
| 2026-04-20 23:10 | 22.36524 | 114.37632 | 27940 ft | 364 kts | 266° |
| 2026-04-20 23:10 | 22.36331 | 114.34869 | 27944 ft | 364 kts | 266° |
| 2026-04-20 23:10 | 22.36143 | 114.32150 | 27944 ft | 364 kts | 266° |
| 2026-04-20 23:11 | 22.35956 | 114.29424 | 27938 ft | 363 kts | 266° |
| 2026-04-20 23:11 | 22.35771 | 114.26704 | 27940 ft | 364 kts | 266° |
| 2026-04-20 23:11 | 22.35585 | 114.24012 | 27930 ft | 364 kts | 266° |
| 2026-04-20 23:11 | 22.35395 | 114.21283 | 27734 ft | 364 kts | 266° |
| 2026-04-20 23:12 | 22.35204 | 114.18562 | 27527 ft | 362 kts | 266° |
| 2026-04-20 23:12 | 22.35013 | 114.15845 | 27052 ft | 365 kts | 265° |
| 2026-04-20 23:12 | 22.34821 | 114.13114 | 26482 ft | 363 kts | 265° |
| 2026-04-20 23:12 | 22.34630 | 114.10411 | 25940 ft | 359 kts | 265° |
| 2026-04-20 23:13 | 22.34442 | 114.07737 | 25404 ft | 356 kts | 265° |
| 2026-04-20 23:13 | 22.34256 | 114.05083 | 24886 ft | 353 kts | 265° |
| 2026-04-20 23:13 | 22.34069 | 114.02445 | 24366 ft | 351 kts | 264° |
| 2026-04-20 23:13 | 22.33880 | 113.99828 | 23864 ft | 349 kts | 264° |
| 2026-04-20 23:14 | 22.33435 | 113.97267 | 23339 ft | 346 kts | 251° |
| 2026-04-20 23:14 | 22.32439 | 113.94917 | 22736 ft | 343 kts | 237° |
| 2026-04-20 23:14 | 22.30946 | 113.92928 | 22150 ft | 342 kts | 224° |
| 2026-04-20 23:14 | 22.29120 | 113.91297 | 21576 ft | 340 kts | 220° |
| 2026-04-20 23:15 | 22.27274 | 113.89704 | 21009 ft | 339 kts | 220° |
| 2026-04-20 23:15 | 22.25436 | 113.88116 | 20458 ft | 337 kts | 220° |
| 2026-04-20 23:15 | 22.23617 | 113.86544 | 19915 ft | 335 kts | 220° |
| 2026-04-20 23:15 | 22.21803 | 113.84978 | 19381 ft | 333 kts | 220° |
| 2026-04-20 23:16 | 22.20005 | 113.83428 | 18857 ft | 331 kts | 220° |
| 2026-04-20 23:16 | 22.18209 | 113.81877 | 18341 ft | 329 kts | 220° |
| 2026-04-20 23:16 | 22.16425 | 113.80337 | 17753 ft | 327 kts | 220° |
| 2026-04-20 23:16 | 22.14647 | 113.78803 | 17124 ft | 326 kts | 220° |
| 2026-04-20 23:17 | 22.12885 | 113.77282 | 16524 ft | 324 kts | 220° |
| 2026-04-20 23:17 | 22.11121 | 113.75758 | 15932 ft | 323 kts | 220° |
| 2026-04-20 23:17 | 22.09374 | 113.74249 | 15359 ft | 321 kts | 220° |
| 2026-04-20 23:17 | 22.07631 | 113.72745 | 14791 ft | 320 kts | 220° |
| 2026-04-20 23:18 | 22.05901 | 113.71253 | 14147 ft | 319 kts | 220° |
| 2026-04-20 23:18 | 22.04219 | 113.69759 | 13561 ft | 313 kts | 226° |
| 2026-04-20 23:18 | 22.02929 | 113.67918 | 12948 ft | 306 kts | 244° |
| 2026-04-20 23:18 | 22.02250 | 113.65800 | 12347 ft | 300 kts | 260° |
| 2026-04-20 23:19 | 22.02271 | 113.63551 | 11843 ft | 294 kts | 283° |
| 2026-04-20 23:19 | 22.03080 | 113.61558 | 11604 ft | 294 kts | 303° |
| 2026-04-20 23:19 | 22.04497 | 113.59982 | 10994 ft | 300 kts | 320° |
| 2026-04-20 23:19 | 22.06199 | 113.58623 | 10418 ft | 298 kts | 323° |
| 2026-04-20 23:20 | 22.07881 | 113.57393 | 9957 ft | 295 kts | 324° |
| 2026-04-20 23:20 | 22.09590 | 113.56181 | 9470 ft | 293 kts | 324° |
| 2026-04-20 23:20 | 22.11296 | 113.54975 | 8953 ft | 293 kts | 324° |
| 2026-04-20 23:20 | 22.12977 | 113.53756 | 8476 ft | 292 kts | 323° |
| 2026-04-20 23:21 | 22.14634 | 113.52505 | 8030 ft | 289 kts | 323° |
| 2026-04-20 23:21 | 22.16268 | 113.51246 | 7594 ft | 288 kts | 323° |
| 2026-04-20 23:21 | 22.17890 | 113.49988 | 7158 ft | 287 kts | 323° |
| 2026-04-20 23:21 | 22.19515 | 113.48750 | 6738 ft | 286 kts | 327° |
| 2026-04-20 23:22 | 22.21355 | 113.47966 | 6319 ft | 285 kts | 350° |
| 2026-04-20 23:22 | 22.23327 | 113.47960 | 6004 ft | 285 kts | 12° |
| 2026-04-20 23:22 | 22.25166 | 113.48720 | 5682 ft | 284 kts | 32° |
| 2026-04-20 23:22 | 22.26828 | 113.49873 | 5367 ft | 283 kts | 34° |
| 2026-04-20 23:23 | 22.28481 | 113.51021 | 5051 ft | 282 kts | 33° |
| 2026-04-20 23:23 | 22.30119 | 113.52152 | 4711 ft | 281 kts | 33° |
| 2026-04-20 23:23 | 22.31773 | 113.53292 | 4337 ft | 279 kts | 33° |
| 2026-04-20 23:23 | 22.33400 | 113.54414 | 3966 ft | 276 kts | 33° |
| 2026-04-20 23:24 | 22.34993 | 113.55512 | 3595 ft | 268 kts | 34° |
| 2026-04-20 23:24 | 22.36541 | 113.56577 | 3231 ft | 259 kts | 33° |
| 2026-04-20 23:24 | 22.37969 | 113.57701 | 2865 ft | 249 kts | 50° |
| 2026-04-20 23:24 | 22.38625 | 113.59317 | 2575 ft | 231 kts | 91° |
| 2026-04-20 23:25 | 22.38159 | 113.60845 | 2504 ft | 205 kts | 136° |
| 2026-04-20 23:25 | 22.37011 | 113.61505 | 2533 ft | 178 kts | 169° |
| 2026-04-20 23:25 | 22.35852 | 113.61801 | 2512 ft | 170 kts | 166° |
| 2026-04-20 23:25 | 22.34660 | 113.62154 | 2516 ft | 181 kts | 165° |
| 2026-04-20 23:26 | 22.33441 | 113.62530 | 2510 ft | 183 kts | 165° |
| 2026-04-20 23:26 | 22.32218 | 113.62915 | 2513 ft | 183 kts | 165° |
| 2026-04-20 23:26 | 22.30999 | 113.63301 | 2508 ft | 183 kts | 165° |
| 2026-04-20 23:26 | 22.29773 | 113.63686 | 2503 ft | 183 kts | 166° |
| 2026-04-20 23:27 | 22.28510 | 113.63764 | 2507 ft | 182 kts | 189° |
| 2026-04-20 23:27 | 22.27320 | 113.63291 | 2352 ft | 183 kts | 212° |
| 2026-04-20 23:27 | 22.26301 | 113.62520 | 2144 ft | 173 kts | 213° |
| 2026-04-20 23:27 | 22.25346 | 113.61801 | 1963 ft | 161 kts | 213° |
| 2026-04-20 23:28 | 22.24466 | 113.61142 | 1810 ft | 148 kts | 213° |
| 2026-04-20 23:28 | 22.23645 | 113.60523 | 1620 ft | 141 kts | 214° |
| 2026-04-20 23:28 | 22.22848 | 113.59920 | 1418 ft | 140 kts | 213° |
| 2026-04-20 23:28 | 22.22056 | 113.59320 | 1242 ft | 139 kts | 214° |
| 2026-04-20 23:29 | 22.21280 | 113.58733 | 1052 ft | 138 kts | 214° |
| 2026-04-20 23:29 | 22.20443 | 113.58215 | 881 ft | 140 kts | 205° |
| 2026-04-20 23:29 | 22.19516 | 113.57943 | 696 ft | 138 kts | 186° |
| 2026-04-20 23:29 | 22.18561 | 113.57924 | 586 ft | 138 kts | 175° |
| 2026-04-20 23:30 | 22.17624 | 113.58162 | 314 ft | 138 kts | 164° |
| 2026-04-20 23:30 | 22.16719 | 113.58504 | 140 ft | 138 kts | 164° |
| 2026-04-20 23:30 | 22.15810 | 113.58828 | 35 ft | 131 kts | 164° |
| 2026-04-20 23:30 | 22.15084 | 113.59093 | 30 ft | 86 kts | 161° |
| 2026-04-20 23:31 | 22.14679 | 113.59244 | 29 ft | 37 kts | 160° |
| 2026-04-20 23:31 | 22.14573 | 113.59273 | 30 ft | 2 kts | 239° |
| 2026-04-20 23:31 | 22.14598 | 113.59238 | 30 ft | 10 kts | 303° |
| 2026-04-20 23:31 | 22.14586 | 113.59163 | 30 ft | 12 kts | 250° |
| 2026-04-20 23:32 | 22.14581 | 113.59097 | 30 ft | 9 kts | 309° |
| 2026-04-20 23:32 | 22.14645 | 113.59063 | 30 ft | 11 kts | 340° |
| 2026-04-20 23:32 | 22.14726 | 113.59029 | 30 ft | 13 kts | 328° |
| 2026-04-20 23:32 | 22.14787 | 113.58941 | 29 ft | 16 kts | 303° |
| 2026-04-20 23:33 | 22.14854 | 113.58830 | 29 ft | 19 kts | 303° |
| 2026-04-20 23:33 | 22.14933 | 113.58703 | 29 ft | 22 kts | 304° |
| 2026-04-20 23:33 | 22.15021 | 113.58560 | 29 ft | 24 kts | 303° |
| 2026-04-20 23:33 | 22.15072 | 113.58477 | 29 ft | 13 kts | 304° |
| 2026-04-20 23:34 | 22.15129 | 113.58387 | 29 ft | 16 kts | 304° |
| 2026-04-20 23:34 | 22.15197 | 113.58278 | 29 ft | 19 kts | 303° |
| 2026-04-20 23:34 | 22.15274 | 113.58152 | 29 ft | 21 kts | 304° |
| 2026-04-20 23:34 | 22.15361 | 113.58013 | 29 ft | 24 kts | 303° |
| 2026-04-20 23:35 | 22.15444 | 113.57876 | 29 ft | 12 kts | 303° |
| 2026-04-20 23:35 | 22.15560 | 113.57692 | 29 ft | 18 kts | 305° |
| 2026-04-20 23:35 | 22.15624 | 113.57595 | 29 ft | 15 kts | 292° |
| 2026-04-20 23:36 | 22.15588 | 113.57496 | 29 ft | 7 kts | 237° |
| 2026-04-20 23:36 | 22.15544 | 113.57489 | 29 ft | 8 kts | 154° |
| 2026-04-20 23:36 | 22.15494 | 113.57524 | 29 ft | 7 kts | 150° |
| 2026-04-20 23:36 | 22.15475 | 113.57535 | 29 ft | 3 kts | 152° |
| 2026-04-20 23:48 | 22.15476 | 113.57535 | 1 ft | 0 kts | 152° |